Time;durP1;ratioP1;P1;durP2;ratioP2;P2;SDS_P1;SDS_P2;PMS_P1;PMS_P2;Temp;Humidity;BMP_temperature;BMP_pressure;BME280_temperature;BME280_humidity;BME280_pressure;Samples;Min_cycle;Max_cycle;Signal;HPM_P1;HPM_P2
2021/01/27 00:01:32;;;;;;;10.60;6.15;;;;;;;-3.12;82.64;99980.06;5083557;28;20028;-68
2021/01/27 00:03:58;;;;;;;11.73;5.50;;;;;;;-3.19;82.63;99973.00;5083274;28;20098;-68
2021/01/27 00:06:23;;;;;;;13.90;6.13;;;;;;;-3.14;82.66;99982.56;5084839;28;20021;-68
2021/01/27 00:08:48;;;;;;;10.85;5.38;;;;;;;-3.19;82.76;99966.25;5084474;28;20023;-68
2021/01/27 00:11:14;;;;;;;8.65;5.75;;;;;;;-3.20;82.71;99974.69;5084774;28;20028;-68
2021/01/27 00:13:39;;;;;;;10.48;4.22;;;;;;;-3.23;82.69;99969.47;5084461;28;20025;-68
2021/01/27 00:16:05;;;;;;;9.85;5.97;;;;;;;-3.17;82.92;99969.72;5084775;28;20028;-68
2021/01/27 00:18:30;;;;;;;16.45;7.70;;;;;;;-3.16;82.45;99970.56;5084445;28;20032;-68
2021/01/27 00:20:55;;;;;;;16.33;8.20;;;;;;;-3.31;81.96;99963.22;5083761;28;20039;-68
2021/01/27 00:23:21;;;;;;;17.80;7.85;;;;;;;-3.38;81.94;99970.59;5084448;28;20021;-68
2021/01/27 00:25:46;;;;;;;11.57;7.32;;;;;;;-3.51;82.14;99966.66;5084633;28;20019;-68
2021/01/27 00:28:12;;;;;;;15.48;7.32;;;;;;;-3.57;82.19;99963.88;5084470;28;20024;-67
2021/01/27 00:30:40;;;;;;;8.23;4.78;;;;;;;-3.56;82.25;99963.06;5084628;28;20062;-67
2021/01/27 00:33:07;;;;;;;7.85;3.13;;;;;;;-3.55;82.45;99957.19;5084172;28;20311;-68
2021/01/27 00:35:39;;;;;;;7.47;4.85;;;;;;;-3.40;82.80;99953.53;5082761;28;20045;-68
2021/01/27 00:38:30;;;;;;;11.70;6.20;;;;;;;-3.29;82.61;99957.38;5083974;28;20028;-67
2021/01/27 00:40:58;;;;;;;10.52;4.88;;;;;;;-3.30;82.36;99948.06;5083181;28;20029;-68
2021/01/27 00:43:27;;;;;;;9.80;4.10;;;;;;;-3.32;82.48;99953.88;5084085;28;20025;-68
2021/01/27 00:45:53;;;;;;;4.72;3.05;;;;;;;-3.26;83.03;99952.44;5082878;28;20048;-68
2021/01/27 00:48:19;;;;;;;4.05;2.13;;;;;;;-3.06;83.35;99952.38;5083983;28;20032;-69
2021/01/27 00:50:45;;;;;;;7.32;4.18;;;;;;;-2.93;83.66;99952.84;5082787;28;20127;-69
2021/01/27 00:53:10;;;;;;;9.73;4.75;;;;;;;-2.88;83.36;99954.78;5083688;28;20029;-68
2021/01/27 00:55:36;;;;;;;7.75;5.45;;;;;;;-2.91;83.30;99954.66;5083975;28;20016;-69
2021/01/27 00:58:02;;;;;;;7.72;4.18;;;;;;;-2.96;83.23;99947.66;5083822;28;20036;-69
2021/01/27 01:00:33;;;;;;;6.78;3.40;;;;;;;-3.03;83.14;99941.47;5084031;28;20258;-68
2021/01/27 01:02:59;;;;;;;6.50;3.10;;;;;;;-2.97;83.51;99943.38;5083585;28;20029;-69
2021/01/27 01:05:31;;;;;;;6.63;3.50;;;;;;;-2.91;83.57;99943.63;5083757;28;20082;-68
2021/01/27 01:07:57;;;;;;;12.90;5.00;;;;;;;-2.90;83.53;99942.81;5083965;28;20033;-65
2021/01/27 01:10:32;;;;;;;5.18;3.30;;;;;;;-2.89;83.50;99929.31;5083708;28;20340;-68
2021/01/27 01:12:59;;;;;;;5.70;2.97;;;;;;;-2.88;83.59;99925.97;5083756;28;20028;-67
2021/01/27 01:15:26;;;;;;;4.97;2.78;;;;;;;-2.83;83.84;99928.69;5082290;28;20403;-68
2021/01/27 01:17:51;;;;;;;4.60;2.72;;;;;;;-2.77;83.57;99919.63;5082114;28;20435;-68
2021/01/27 01:20:18;;;;;;;5.18;2.88;;;;;;;-2.79;83.38;99911.06;5083595;28;20528;-68
2021/01/27 01:22:55;;;;;;;12.32;6.72;;;;;;;-2.79;83.20;99920.34;5083459;28;20021;-68
2021/01/27 01:25:23;;;;;;;7.30;3.47;;;;;;;-2.84;83.19;99917.63;5083517;28;20028;-68
2021/01/27 01:27:49;;;;;;;2.55;1.50;;;;;;;-2.75;83.24;99915.44;5083411;28;20207;-68
2021/01/27 01:30:20;;;;;;;3.83;2.20;;;;;;;-2.74;83.49;99921.41;5083878;28;20024;-68
2021/01/27 01:32:46;;;;;;;4.30;2.17;;;;;;;-2.66;83.49;99925.09;5082998;28;20025;-68
2021/01/27 01:35:14;;;;;;;3.80;2.30;;;;;;;-2.76;83.82;99931.50;5083264;28;20074;-68
2021/01/27 01:37:42;;;;;;;3.50;2.03;;;;;;;-2.78;83.77;99934.81;5065530;28;20024;-68
2021/01/27 01:40:13;;;;;;;3.47;1.95;;;;;;;-2.72;83.72;99929.09;5082542;28;20041;-69
2021/01/27 01:42:38;;;;;;;5.25;2.97;;;;;;;-2.74;83.78;99924.81;5081095;28;20027;-68
2021/01/27 01:45:28;;;;;;;5.40;2.83;;;;;;;-2.74;84.09;99934.09;5083356;28;20092;-68
2021/01/27 01:47:56;;;;;;;5.53;3.25;;;;;;;-2.77;83.89;99931.44;5079514;28;20037;-68
2021/01/27 01:50:24;;;;;;;5.70;3.38;;;;;;;-2.83;83.79;99915.97;5083465;28;20051;-68
2021/01/27 01:52:51;;;;;;;7.25;3.75;;;;;;;-2.69;83.58;99935.16;5083020;28;20055;-67
2021/01/27 01:55:18;;;;;;;7.22;3.83;;;;;;;-2.79;83.30;99921.22;5083099;28;20031;-69
2021/01/27 01:57:45;;;;;;;4.85;2.17;;;;;;;-2.78;83.21;99917.03;5083018;28;20017;-68
2021/01/27 02:00:11;;;;;;;4.65;2.80;;;;;;;-2.84;83.12;99922.72;5083236;28;20029;-68
2021/01/27 02:02:39;;;;;;;6.75;3.78;;;;;;;-2.87;83.29;99926.03;5083133;28;20025;-69
2021/01/27 02:05:12;;;;;;;6.47;3.58;;;;;;;-3.01;83.31;99917.88;5083086;28;20044;-68
2021/01/27 02:07:37;;;;;;;3.85;3.03;;;;;;;-2.90;83.24;99922.50;5083102;28;20032;-70
2021/01/27 02:10:05;;;;;;;5.10;3.28;;;;;;;-2.92;82.90;99919.00;5081485;28;20020;-68
2021/01/27 02:12:58;;;;;;;5.65;3.17;;;;;;;-3.01;83.23;99920.41;5083171;28;20473;-70
2021/01/27 02:15:35;;;;;;;6.20;4.03;;;;;;;-3.03;83.38;99918.59;5083136;28;20031;-69
2021/01/27 02:18:34;;;;;;;7.50;5.05;;;;;;;-3.09;83.28;99914.16;5082906;28;20024;-69
2021/01/27 02:21:26;;;;;;;10.70;5.03;;;;;;;-3.16;83.60;99902.00;5081775;28;20036;-69
2021/01/27 02:24:24;;;;;;;10.98;4.05;;;;;;;-3.08;83.36;99902.34;5082668;28;20026;-69
2021/01/27 02:27:20;;;;;;;6.13;3.17;;;;;;;-3.17;83.52;99900.28;5083138;28;20020;-69
2021/01/27 02:30:23;;;;;;;20.92;3.13;;;;;;;-3.18;83.40;99901.94;5078712;28;20412;-70
2021/01/27 02:33:17;;;;;;;5.18;3.72;;;;;;;-3.21;83.47;99891.69;5082478;28;20031;-68
2021/01/27 02:35:53;;;;;;;4.82;2.85;;;;;;;-3.08;83.11;99877.78;5077510;28;20048;-70
2021/01/27 02:38:22;;;;;;;7.60;4.13;;;;;;;-3.09;83.21;99887.88;5082700;28;20165;-70
2021/01/27 02:40:53;;;;;;;8.23;3.45;;;;;;;-3.08;83.12;99877.78;5081395;28;20448;-69
2021/01/27 02:43:34;;;;;;;5.80;3.38;;;;;;;-3.17;83.72;99882.50;5083220;28;20049;-69
2021/01/27 02:46:14;;;;;;;3.13;1.80;;;;;;;-3.20;83.51;99877.31;5086591;28;20055;-69
2021/01/27 02:49:08;;;;;;;8.07;3.88;;;;;;;-3.19;83.75;99879.03;5086119;28;20031;-70
2021/01/27 02:52:03;;;;;;;6.25;3.45;;;;;;;-3.34;84.14;99875.13;5086596;28;20487;-69
2021/01/27 02:54:41;;;;;;;7.03;3.83;;;;;;;-3.32;84.49;99877.72;5086060;28;20031;-68
2021/01/27 02:57:09;;;;;;;6.38;2.78;;;;;;;-3.27;84.49;99866.03;5086376;28;20237;-69
2021/01/27 03:00:05;;;;;;;3.90;2.70;;;;;;;-3.14;84.42;99863.19;5086203;28;20232;-69
2021/01/27 03:02:40;;;;;;;3.25;2.28;;;;;;;-3.01;84.24;99854.38;5086183;28;20032;-69
2021/01/27 03:05:42;;;;;;;2.50;1.88;;;;;;;-2.92;84.35;99863.13;5086220;28;20024;-70
2021/01/27 03:08:13;;;;;;;5.22;2.80;;;;;;;-2.82;83.83;99851.63;5084389;28;20086;-68
2021/01/27 03:10:47;;;;;;;3.63;2.50;;;;;;;-2.84;84.03;99848.19;5086295;28;20095;-70
2021/01/27 03:13:13;;;;;;;4.53;2.47;;;;;;;-2.88;84.10;99855.72;5086066;28;20012;-68
2021/01/27 03:15:38;;;;;;;5.80;2.97;;;;;;;-2.94;84.36;99845.28;5086160;28;20048;-69
2021/01/27 03:18:08;;;;;;;8.25;3.17;;;;;;;-2.94;84.62;99850.38;5084591;28;20032;-69
2021/01/27 03:20:38;;;;;;;3.58;1.98;;;;;;;-2.89;84.67;99853.94;5086060;28;20021;-68
2021/01/27 03:23:27;;;;;;;9.98;5.13;;;;;;;-2.84;84.37;99855.81;5067999;28;20046;-68
2021/01/27 03:26:16;;;;;;;7.10;3.97;;;;;;;-2.84;84.45;99854.13;5085783;28;20026;-70
2021/01/27 03:28:50;;;;;;;7.25;3.78;;;;;;;-2.83;83.96;99848.25;5085954;28;20020;-69
2021/01/27 03:31:15;;;;;;;4.28;2.15;;;;;;;-2.77;83.68;99853.56;5085728;28;20035;-69
2021/01/27 03:33:48;;;;;;;6.40;2.03;;;;;;;-2.84;83.54;99856.66;5085493;28;20021;-69
2021/01/27 03:36:14;;;;;;;4.20;3.17;;;;;;;-2.94;83.80;99844.44;5085278;28;20068;-71
2021/01/27 03:38:44;;;;;;;5.88;2.65;;;;;;;-2.95;83.63;99847.78;5083822;28;20020;-71
2021/01/27 03:41:24;;;;;;;7.05;3.38;;;;;;;-3.07;84.02;99848.19;5085415;28;20016;-69
2021/01/27 03:43:59;;;;;;;3.13;2.22;;;;;;;-3.02;83.78;99846.69;5085260;28;20126;-69
2021/01/27 03:46:33;;;;;;;5.65;2.97;;;;;;;-3.11;83.74;99842.13;5085500;28;20029;-69
2021/01/27 03:49:11;;;;;;;3.58;2.38;;;;;;;-3.10;84.16;99848.94;5085375;28;20025;-69
2021/01/27 03:51:40;;;;;;;3.45;2.17;;;;;;;-3.05;84.27;99846.59;5085552;28;20029;-69
2021/01/27 03:54:13;;;;;;;4.15;2.22;;;;;;;-3.00;84.21;99845.94;5084788;28;20319;-69
2021/01/27 03:56:47;;;;;;;4.10;2.42;;;;;;;-2.96;84.35;99841.84;5085165;28;20037;-69
2021/01/27 03:59:13;;;;;;;7.00;4.15;;;;;;;-2.92;84.06;99830.09;5084956;28;20031;-68
2021/01/27 04:01:47;;;;;;;5.47;2.95;;;;;;;-2.86;84.41;99840.53;5085159;28;20099;-68
2021/01/27 04:04:13;;;;;;;7.88;3.65;;;;;;;-2.85;84.44;99844.78;5084917;28;20020;-67
2021/01/27 04:06:39;;;;;;;6.97;4.32;;;;;;;-2.89;84.57;99835.31;5084900;28;20099;-69
2021/01/27 04:09:05;;;;;;;9.23;4.15;;;;;;;-2.83;84.87;99843.16;5084467;28;20052;-68
2021/01/27 04:11:30;;;;;;;4.03;2.47;;;;;;;-2.74;84.78;99838.41;5084919;28;20028;-70
2021/01/27 04:13:55;;;;;;;4.85;2.58;;;;;;;-2.51;84.21;99819.72;5084617;28;20031;-69
2021/01/27 04:16:21;;;;;;;6.18;4.07;;;;;;;-2.49;84.14;99821.50;5084957;28;20048;-70
2021/01/27 04:18:46;;;;;;;7.82;3.13;;;;;;;-2.51;84.44;99820.56;5084673;28;20024;-69
2021/01/27 04:21:12;;;;;;;5.30;2.85;;;;;;;-2.46;84.01;99813.09;5084772;28;20039;-69
2021/01/27 04:23:37;;;;;;;4.50;2.63;;;;;;;-2.48;84.08;99817.28;5084520;28;20027;-69
2021/01/27 04:26:03;;;;;;;6.85;4.30;;;;;;;-2.55;84.33;99813.66;5084515;28;20028;-69
2021/01/27 04:28:28;;;;;;;5.35;3.05;;;;;;;-2.47;84.31;99820.69;5084673;28;20096;-70
2021/01/27 04:30:54;;;;;;;7.93;4.50;;;;;;;-2.53;84.35;99811.16;5084676;28;20103;-70
2021/01/27 04:33:19;;;;;;;5.82;3.63;;;;;;;-2.50;84.29;99822.31;5084245;28;20028;-70
2021/01/27 04:35:45;;;;;;;6.20;3.40;;;;;;;-2.44;84.32;99808.06;5084097;28;20051;-70
2021/01/27 04:38:10;;;;;;;4.85;3.42;;;;;;;-2.46;83.94;99802.09;5084208;28;20039;-68
2021/01/27 04:40:47;;;;;;;11.70;5.95;;;;;;;-2.44;84.00;99805.53;5084237;28;20031;-69
2021/01/27 04:43:35;;;;;;;3.70;2.58;;;;;;;-2.42;84.24;99806.47;5084094;28;20028;-69
2021/01/27 04:46:26;;;;;;;3.88;2.60;;;;;;;-2.32;83.82;99795.81;5084273;28;20027;-70
2021/01/27 04:48:59;;;;;;;4.43;2.75;;;;;;;-2.41;83.89;99800.59;5084052;28;20029;-68
2021/01/27 04:52:17;;;;;;;5.22;3.13;;;;;;;-2.34;84.37;99792.34;5084150;28;20028;-68
2021/01/27 04:55:04;;;;;;;6.95;3.50;;;;;;;-2.38;84.23;99785.44;5061169;28;20037;-68
2021/01/27 04:57:54;;;;;;;6.25;3.80;;;;;;;-2.35;84.13;99787.19;5061336;28;20029;-72
2021/01/27 05:00:24;;;;;;;5.90;3.53;;;;;;;-2.37;84.24;99782.06;5061312;28;20033;-70
2021/01/27 05:03:04;;;;;;;7.78;4.00;;;;;;;-2.38;84.45;99771.03;5061274;28;20056;-69
2021/01/27 05:05:36;;;;;;;5.88;3.50;;;;;;;-2.35;84.33;99761.78;5061316;28;20060;-70
2021/01/27 05:08:18;;;;;;;8.90;3.35;;;;;;;-2.32;84.56;99766.97;5044089;28;20028;-69
2021/01/27 05:10:55;;;;;;;10.63;4.57;;;;;;;-2.37;84.78;99767.69;5044303;28;20037;-69
2021/01/27 05:13:30;;;;;;;5.00;2.63;;;;;;;-2.19;84.43;99761.47;5060902;28;20112;-71
2021/01/27 05:15:58;;;;;;;8.77;4.78;;;;;;;-2.14;84.38;99754.00;5061064;28;20056;-69
2021/01/27 05:18:23;;;;;;;6.65;4.03;;;;;;;-2.21;84.64;99757.16;5060833;28;20056;-69
2021/01/27 05:20:50;;;;;;;8.02;3.88;;;;;;;-2.19;84.72;99761.47;5044274;28;20414;-69
2021/01/27 05:23:17;;;;;;;4.82;2.75;;;;;;;-2.27;85.10;99755.28;5043651;28;20029;-67
2021/01/27 05:25:47;;;;;;;6.70;4.03;;;;;;;-2.10;85.19;99765.13;5060816;28;20058;-70
2021/01/27 05:28:22;;;;;;;9.35;5.00;;;;;;;-2.16;85.22;99760.72;5070165;28;20051;-69
2021/01/27 05:30:53;;;;;;;13.52;6.10;;;;;;;-2.15;85.23;99759.88;5082421;28;20307;-69
2021/01/27 05:33:39;;;;;;;9.43;3.60;;;;;;;-2.01;84.85;99753.56;5083390;28;20039;-69
2021/01/27 05:36:12;;;;;;;12.13;5.45;;;;;;;-2.07;84.96;99755.94;5081733;28;20044;-69
2021/01/27 05:38:38;;;;;;;12.93;7.38;;;;;;;-2.12;85.04;99753.22;5065009;28;20109;-68
2021/01/27 05:41:27;;;;;;;15.63;7.40;;;;;;;-2.12;85.48;99750.69;5082786;28;20458;-69
2021/01/27 05:44:08;;;;;;;14.25;6.57;;;;;;;-2.04;85.49;99744.97;5082789;28;20028;-70
2021/01/27 05:46:36;;;;;;;13.98;7.55;;;;;;;-2.09;85.55;99747.38;5083393;28;20021;-69
2021/01/27 05:49:03;;;;;;;14.82;6.78;;;;;;;-2.05;85.68;99746.66;5083455;28;20028;-69
2021/01/27 05:51:37;;;;;;;16.67;7.57;;;;;;;-2.01;85.55;99742.53;5083358;28;20031;-70
2021/01/27 05:54:21;;;;;;;23.52;8.93;;;;;;;-1.94;85.20;99735.97;5081758;28;20036;-69
2021/01/27 05:56:47;;;;;;;13.32;4.22;;;;;;;-2.00;85.18;99737.47;5083396;28;20032;-69
2021/01/27 05:59:24;;;;;;;15.35;8.20;;;;;;;-1.91;84.63;99736.94;5083271;28;20016;-70
2021/01/27 06:01:51;;;;;;;8.27;3.60;;;;;;;-1.92;84.62;99740.31;5083320;28;20020;-71
2021/01/27 06:04:23;;;;;;;18.10;7.90;;;;;;;-2.01;84.99;99733.22;5081867;28;20066;-72
2021/01/27 06:06:49;;;;;;;12.40;6.22;;;;;;;-2.00;84.87;99732.41;5083422;28;20099;-70
2021/01/27 06:09:28;;;;;;;14.52;7.75;;;;;;;-2.05;85.15;99733.06;5082992;28;20032;-70
2021/01/27 06:12:23;;;;;;;10.88;5.32;;;;;;;-2.11;85.43;99726.13;5083349;28;20028;-71
2021/01/27 06:15:11;;;;;;;23.52;8.25;;;;;;;-2.13;85.59;99725.19;5080063;28;20037;-70
2021/01/27 06:17:44;;;;;;;12.93;6.10;;;;;;;-2.07;85.69;99719.44;5083030;28;20021;-70
2021/01/27 06:20:15;;;;;;;13.85;7.05;;;;;;;-2.05;85.52;99726.31;5086869;28;20052;-71
2021/01/27 06:23:08;;;;;;;17.23;7.55;;;;;;;-1.98;85.78;99724.81;5086795;28;20074;-67
2021/01/27 06:25:51;;;;;;;18.83;9.25;;;;;;;-2.01;85.64;99724.72;5086947;28;20020;-68
2021/01/27 06:28:38;;;;;;;11.38;5.90;;;;;;;-1.96;85.84;99719.78;5086967;28;20035;-68
2021/01/27 06:31:42;;;;;;;20.10;8.45;;;;;;;-1.94;85.62;99720.69;5086939;28;20027;-69
2021/01/27 06:34:44;;;;;;;20.48;9.43;;;;;;;-1.91;85.76;99725.88;5086644;28;20035;-69
2021/01/27 06:37:48;;;;;;;10.27;4.68;;;;;;;-1.95;85.84;99714.72;5085261;28;20063;-69
2021/01/27 06:40:50;;;;;;;23.55;8.75;;;;;;;-1.93;85.88;99723.28;5086565;28;20021;-69
2021/01/27 06:43:24;;;;;;;20.38;5.85;;;;;;;-1.83;85.50;99728.66;5086701;28;20024;-68
2021/01/27 06:46:18;;;;;;;22.25;7.88;;;;;;;-1.89;85.78;99725.13;5086868;28;20029;-69
2021/01/27 06:49:21;;;;;;;12.63;6.90;;;;;;;-1.89;85.90;99726.81;5085152;28;20494;-68
2021/01/27 06:52:17;;;;;;;23.58;8.90;;;;;;;-1.85;85.95;99720.13;5086189;28;20027;-70
2021/01/27 06:54:57;;;;;;;23.85;9.90;;;;;;;-1.85;85.78;99720.97;5086030;28;20027;-69
2021/01/27 06:57:24;;;;;;;17.73;8.60;;;;;;;-1.79;85.86;99723.72;5086421;28;20085;-70
2021/01/27 07:00:15;;;;;;;17.70;8.43;;;;;;;-1.81;86.13;99721.94;5086422;28;20024;-70
2021/01/27 07:03:08;;;;;;;10.30;4.80;;;;;;;-1.78;86.00;99728.00;5086187;28;20031;-70
2021/01/27 07:05:48;;;;;;;21.27;10.30;;;;;;;-1.78;85.92;99725.47;5086349;28;20021;-68
2021/01/27 07:08:36;;;;;;;18.63;8.18;;;;;;;-1.76;86.19;99728.88;5086189;28;20082;-68
2021/01/27 07:11:11;;;;;;;21.52;9.55;;;;;;;-1.70;86.21;99729.91;5086233;28;20028;-67
2021/01/27 07:14:07;;;;;;;20.45;10.00;;;;;;;-1.62;86.16;99731.88;5086265;28;20023;-68
2021/01/27 07:17:01;;;;;;;22.23;10.40;;;;;;;-1.55;86.08;99734.63;5086218;28;20264;-68
2021/01/27 07:19:45;;;;;;;32.90;11.73;;;;;;;-1.52;86.03;99727.06;5086010;28;20032;-68
2021/01/27 07:22:19;;;;;;;23.55;11.50;;;;;;;-1.47;86.05;99734.84;5086009;28;20032;-68
2021/01/27 07:25:06;;;;;;;28.40;12.05;;;;;;;-1.45;85.96;99733.22;5085629;28;20029;-69
2021/01/27 07:27:36;;;;;;;15.57;9.95;;;;;;;-1.44;85.88;99735.81;5085895;28;20028;-68
2021/01/27 07:30:14;;;;;;;20.95;11.10;;;;;;;-1.41;85.80;99733.34;5085684;28;20021;-69
2021/01/27 07:32:54;;;;;;;26.80;12.57;;;;;;;-1.34;85.95;99744.56;5085187;28;20029;-68
2021/01/27 07:35:57;;;;;;;30.85;11.75;;;;;;;-1.27;85.92;99751.56;5084354;28;20029;-66
2021/01/27 07:38:27;;;;;;;27.58;11.65;;;;;;;-1.20;85.96;99741.56;5085336;28;20036;-67
2021/01/27 07:41:01;;;;;;;23.40;11.77;;;;;;;-1.16;86.00;99745.91;5085558;28;20030;-67
2021/01/27 07:43:58;;;;;;;21.60;10.50;;;;;;;-1.14;85.87;99740.06;5085515;28;20023;-66
2021/01/27 07:46:34;;;;;;;28.35;12.15;;;;;;;-1.05;85.78;99736.88;5084117;28;20028;-67
2021/01/27 07:49:04;;;;;;;26.10;12.18;;;;;;;-1.00;85.96;99735.34;5085387;28;20021;-67
2021/01/27 07:51:52;;;;;;;32.97;13.02;;;;;;;-0.90;86.08;99735.59;5085355;28;20142;-68
2021/01/27 07:54:42;;;;;;;27.70;12.65;;;;;;;-0.84;85.89;99734.88;5084840;28;20031;-67
2021/01/27 07:57:26;;;;;;;33.25;12.32;;;;;;;-0.80;85.86;99735.00;5085287;28;20021;-67
2021/01/27 08:00:01;;;;;;;26.80;10.98;;;;;;;-0.78;85.76;99725.72;5085229;28;20025;-67
2021/01/27 08:02:32;;;;;;;26.38;11.55;;;;;;;-0.75;85.61;99730.03;5084614;28;20132;-67
2021/01/27 08:05:08;;;;;;;24.75;12.82;;;;;;;-0.71;85.61;99723.34;5084191;28;20027;-69
2021/01/27 08:07:39;;;;;;;28.45;11.70;;;;;;;-0.65;85.55;99728.59;5084262;28;20023;-68
2021/01/27 08:10:26;;;;;;;29.67;12.68;;;;;;;-0.62;85.61;99728.69;5083962;28;20315;-68
2021/01/27 08:13:02;;;;;;;31.40;13.00;;;;;;;-0.62;85.52;99726.13;5084758;28;20081;-68
2021/01/27 08:15:27;;;;;;;29.50;12.43;;;;;;;-0.55;85.57;99728.03;5083881;28;20021;-68
2021/01/27 08:17:55;;;;;;;40.55;13.63;;;;;;;-0.47;85.81;99729.91;5083256;28;20027;-67
2021/01/27 08:20:42;;;;;;;36.40;13.07;;;;;;;-0.40;85.95;99726.69;5084651;28;20025;-68
2021/01/27 08:23:09;;;;;;;32.95;12.77;;;;;;;-0.30;85.92;99738.84;5084645;28;20252;-67
2021/01/27 08:25:55;;;;;;;30.35;12.43;;;;;;;-0.20;85.76;99739.06;5084286;28;20521;-68
2021/01/27 08:28:35;;;;;;;38.28;14.55;;;;;;;-0.13;85.78;99736.72;5084445;28;20119;-67
2021/01/27 08:31:09;;;;;;;32.55;12.75;;;;;;;-0.09;85.81;99732.56;5084611;28;20099;-67
2021/01/27 08:33:44;;;;;;;33.10;14.70;;;;;;;-0.05;85.77;99730.94;5084364;28;20044;-66
2021/01/27 08:36:33;;;;;;;35.85;14.25;;;;;;;0.03;85.83;99732.00;5082938;28;20044;-67
2021/01/27 08:38:58;;;;;;;31.77;13.05;;;;;;;0.10;85.54;99727.88;5060611;28;20028;-67
2021/01/27 08:41:52;;;;;;;42.47;15.27;;;;;;;0.16;85.73;99728.00;5059882;28;20101;-69
2021/01/27 08:44:20;;;;;;;37.08;15.02;;;;;;;0.22;85.81;99728.16;5061059;28;20021;-69
2021/01/27 08:47:02;;;;;;;34.30;14.52;;;;;;;0.26;85.85;99721.44;5061581;28;20036;-68
2021/01/27 08:49:48;;;;;;;47.42;14.00;;;;;;;0.35;85.66;99726.75;5061316;28;20033;-68
2021/01/27 08:52:13;;;;;;;46.95;14.93;;;;;;;0.45;85.55;99729.50;5061454;28;20059;-67
2021/01/27 08:54:39;;;;;;;40.92;12.55;;;;;;;0.51;85.62;99718.56;5061191;28;20029;-67
2021/01/27 08:57:26;;;;;;;45.67;15.05;;;;;;;0.56;85.50;99727.19;5061296;28;20116;-68
2021/01/27 09:00:10;;;;;;;39.95;13.15;;;;;;;0.58;85.31;99723.84;5061382;28;20089;-68
2021/01/27 09:02:45;;;;;;;33.75;12.77;;;;;;;0.63;85.21;99716.28;5061266;28;20036;-69
2021/01/27 09:05:13;;;;;;;37.58;11.90;;;;;;;0.72;85.23;99713.91;5061237;28;20396;-69
2021/01/27 09:07:51;;;;;;;37.17;12.70;;;;;;;0.75;85.24;99710.56;5061440;28;20032;-68
2021/01/27 09:10:18;;;;;;;41.65;12.68;;;;;;;0.83;85.08;99715.84;5061039;28;20037;-69
2021/01/27 09:12:46;;;;;;;44.55;13.95;;;;;;;0.85;85.00;99719.25;5061025;28;20021;-69
2021/01/27 09:15:31;;;;;;;38.45;12.73;;;;;;;0.90;85.10;99715.09;5047889;28;20035;-69
2021/01/27 09:17:59;;;;;;;39.42;13.45;;;;;;;1.05;84.92;99723.91;5083418;28;20021;-67
2021/01/27 09:20:30;;;;;;;39.50;13.00;;;;;;;1.09;85.03;99725.69;5082316;28;20333;-69
2021/01/27 09:23:01;;;;;;;31.98;13.70;;;;;;;1.19;85.00;99722.50;5083677;28;20021;-68
2021/01/27 09:25:27;;;;;;;47.30;13.77;;;;;;;1.26;84.95;99723.47;5083298;28;20035;-69
2021/01/27 09:28:05;;;;;;;47.25;14.27;;;;;;;1.29;84.65;99722.66;5082211;28;20547;-68
2021/01/27 09:30:30;;;;;;;63.65;15.45;;;;;;;1.26;84.38;99717.50;5083549;28;20021;-68
2021/01/27 09:33:17;;;;;;;45.00;14.20;;;;;;;1.22;84.57;99724.22;5083571;28;20021;-68
2021/01/27 09:35:44;;;;;;;47.42;14.18;;;;;;;1.25;84.82;99720.88;5083371;28;20071;-67
2021/01/27 09:38:12;;;;;;;45.90;14.88;;;;;;;1.27;84.47;99722.63;5083274;28;20043;-67
2021/01/27 09:40:43;;;;;;;46.08;15.90;;;;;;;1.19;84.87;99719.06;5082292;28;20036;-68
2021/01/27 09:43:12;;;;;;;35.53;15.18;;;;;;;1.17;84.84;99725.81;5082252;28;20028;-67
2021/01/27 09:45:40;;;;;;;64.35;16.13;;;;;;;1.20;84.92;99734.44;5083481;28;20085;-68
2021/01/27 09:48:08;;;;;;;60.05;16.52;;;;;;;1.22;84.90;99729.34;5083363;28;20031;-67
2021/01/27 09:50:41;;;;;;;44.60;14.50;;;;;;;1.28;85.04;99733.72;5083485;28;20074;-68
2021/01/27 09:53:08;;;;;;;48.47;15.73;;;;;;;1.29;85.18;99743.13;5085425;28;20032;-67
2021/01/27 09:55:34;;;;;;;51.03;15.15;;;;;;;1.38;85.14;99732.19;5087268;28;20021;-67
2021/01/27 09:58:04;;;;;;;43.70;15.00;;;;;;;1.44;84.82;99730.59;5087470;28;20069;-66
2021/01/27 10:00:34;;;;;;;47.97;14.30;;;;;;;1.48;85.00;99727.28;5087622;28;20475;-67
2021/01/27 10:03:21;;;;;;;53.85;15.77;;;;;;;1.57;85.01;99725.69;5086015;28;20029;-67
2021/01/27 10:05:47;;;;;;;38.88;16.17;;;;;;;1.64;84.94;99727.53;5087281;28;20028;-67
2021/01/27 10:08:25;;;;;;;41.90;15.10;;;;;;;1.72;85.12;99726.00;5087196;28;20024;-68
2021/01/27 10:11:01;;;;;;;35.33;12.65;;;;;;;1.86;84.93;99730.44;5087101;28;20041;-67
2021/01/27 10:13:31;;;;;;;43.20;15.35;;;;;;;1.96;84.90;99729.78;5086914;28;20024;-65
2021/01/27 10:16:12;;;;;;;64.82;16.60;;;;;;;2.03;84.59;99735.00;5087350;28;20024;-67
2021/01/27 10:18:39;;;;;;;45.67;13.30;;;;;;;1.93;84.17;99724.59;5086873;28;20116;-67
2021/01/27 10:21:09;;;;;;;64.10;13.60;;;;;;;1.87;83.62;99726.22;5085579;28;20075;-66
2021/01/27 10:23:44;;;;;;;43.70;13.38;;;;;;;1.71;83.68;99729.34;5086687;28;20029;-66
2021/01/27 10:26:37;;;;;;;50.20;14.27;;;;;;;1.62;83.93;99726.66;5086984;28;20025;-67
2021/01/27 10:29:23;;;;;;;77.30;15.38;;;;;;;1.53;83.83;99714.56;5086662;28;20032;-67
2021/01/27 10:31:55;;;;;;;57.47;14.98;;;;;;;1.46;84.02;99718.72;5086896;28;20486;-66
2021/01/27 10:34:36;;;;;;;63.75;15.82;;;;;;;1.47;84.31;99717.03;5086463;28;20028;-67
2021/01/27 10:37:03;;;;;;;48.85;15.90;;;;;;;1.54;84.60;99712.84;5086680;28;20041;-67
2021/01/27 10:39:30;;;;;;;46.85;15.65;;;;;;;1.59;84.61;99714.69;5084762;28;20051;-67
2021/01/27 10:42:04;;;;;;;60.45;16.77;;;;;;;1.64;84.22;99711.31;5086546;28;20035;-67
2021/01/27 10:44:35;;;;;;;50.00;15.70;;;;;;;1.59;84.13;99713.81;5086417;28;20020;-67
2021/01/27 10:47:29;;;;;;;51.90;14.15;;;;;;;1.54;84.11;99715.41;5086240;28;20017;-67
2021/01/27 10:49:56;;;;;;;49.65;15.38;;;;;;;1.53;84.12;99708.59;5083659;28;20044;-66
2021/01/27 10:52:26;;;;;;;41.97;14.13;;;;;;;1.50;84.13;99703.41;5086268;28;20465;-66
2021/01/27 10:55:02;;;;;;;48.28;14.88;;;;;;;1.46;84.01;99708.47;5086080;28;20222;-66
2021/01/27 10:57:27;;;;;;;51.65;16.75;;;;;;;1.35;83.95;99697.19;5086209;28;20027;-66
2021/01/27 10:59:53;;;;;;;69.45;17.50;;;;;;;1.31;83.65;99700.53;5084100;28;20029;-67
2021/01/27 11:02:19;;;;;;;48.65;16.00;;;;;;;1.20;84.17;99697.75;5083889;28;20031;-66
2021/01/27 11:04:44;;;;;;;58.80;17.02;;;;;;;1.26;84.07;99690.22;5084561;28;20051;-67
2021/01/27 11:07:10;;;;;;;40.35;15.25;;;;;;;1.26;83.98;99692.78;5086164;28;20016;-67
2021/01/27 11:09:35;;;;;;;41.75;17.13;;;;;;;1.21;84.16;99692.72;5084085;28;20193;-66
2021/01/27 11:12:00;;;;;;;69.43;15.52;;;;;;;1.29;84.20;99691.97;5086195;28;20031;-68
2021/01/27 11:14:26;;;;;;;64.13;17.60;;;;;;;1.34;83.93;99701.44;5085736;28;20502;-66
2021/01/27 11:16:51;;;;;;;59.50;18.02;;;;;;;1.25;84.09;99695.31;5085847;28;20020;-66
2021/01/27 11:19:17;;;;;;;65.70;18.65;;;;;;;1.30;83.99;99696.25;5085649;28;20024;-66
2021/01/27 11:21:42;;;;;;;59.45;17.75;;;;;;;1.25;83.73;99678.25;5085874;28;20020;-67
2021/01/27 11:24:08;;;;;;;62.25;17.15;;;;;;;1.31;83.87;99693.72;5085206;28;20112;-66
2021/01/27 11:26:35;;;;;;;55.10;17.25;;;;;;;1.28;84.09;99688.53;5085549;28;20456;-66
2021/01/27 11:29:01;;;;;;;64.05;17.17;;;;;;;1.39;84.36;99691.28;5084520;28;20105;-67
2021/01/27 11:31:27;;;;;;;45.20;15.60;;;;;;;1.45;84.44;99691.38;5085872;28;20024;-66
2021/01/27 11:33:52;;;;;;;49.03;16.48;;;;;;;1.55;84.32;99696.69;5085466;28;20024;-67
2021/01/27 11:36:19;;;;;;;50.13;16.23;;;;;;;1.59;84.21;99690.78;5085356;28;20063;-66
2021/01/27 11:38:46;;;;;;;50.40;17.30;;;;;;;1.67;84.21;99688.34;5085313;28;20028;-65
2021/01/27 11:41:12;;;;;;;47.10;16.30;;;;;;;1.71;84.02;99688.41;5085835;28;20017;-67
2021/01/27 11:43:41;;;;;;;52.63;16.88;;;;;;;1.78;84.18;99699.63;5085395;28;20028;-66
2021/01/27 11:46:07;;;;;;;44.80;15.57;;;;;;;1.79;84.19;99685.97;5084370;28;20102;-66
2021/01/27 11:48:33;;;;;;;79.30;17.30;;;;;;;1.88;84.16;99690.38;5084153;28;20036;-67
2021/01/27 11:50:59;;;;;;;97.35;19.45;;;;;;;1.90;83.89;99688.69;5085385;28;20021;-65
2021/01/27 11:53:24;;;;;;;64.80;17.42;;;;;;;1.90;83.87;99688.69;5085263;28;20032;-67
2021/01/27 11:55:49;;;;;;;70.20;19.48;;;;;;;1.89;83.85;99688.66;5083841;28;20049;-66
2021/01/27 11:58:15;;;;;;;51.50;16.85;;;;;;;1.87;83.48;99687.81;5085304;28;20075;-66
2021/01/27 12:00:40;;;;;;;41.42;15.55;;;;;;;1.87;83.65;99678.41;5085271;28;20107;-66